createdAt,value
2022-12-19T00:00:15.489Z,84.38
2022-12-19T00:03:01.262Z,85.68
2022-12-19T00:05:46.779Z,83.94
2022-12-19T00:08:33.319Z,84.78
2022-12-19T00:11:22.612Z,84.01
2022-12-19T00:14:11.665Z,83.61
2022-12-19T00:16:57.166Z,84.88
2022-12-19T00:19:43.196Z,84.11
2022-12-19T00:22:28.704Z,84.58
2022-12-19T00:25:14.256Z,85.27
2022-12-19T00:28:00.344Z,85.95
2022-12-19T00:30:45.939Z,84.86
2022-12-19T00:33:32.239Z,85.74
2022-12-19T00:36:23.182Z,86.83
2022-12-19T00:39:10.572Z,86.68
2022-12-19T00:41:56.243Z,85.78
2022-12-19T00:44:41.670Z,85.93
2022-12-19T00:47:30.148Z,86.24
2022-12-19T00:50:15.530Z,86.25
2022-12-19T00:53:00.949Z,85.69
2022-12-19T00:55:46.360Z,85.84
2022-12-19T00:58:35.333Z,86.01
2022-12-19T01:01:34.839Z,86.20
2022-12-19T01:04:29.135Z,85.50
2022-12-19T01:07:15.519Z,86.20
2022-12-19T01:10:00.840Z,86.62
2022-12-19T01:12:46.279Z,86.52
2022-12-19T01:15:31.679Z,85.27
2022-12-19T01:18:17.339Z,85.75
2022-12-19T01:21:07.581Z,87.27
2022-12-19T01:23:53.172Z,86.66
2022-12-19T01:26:38.472Z,86.09
2022-12-19T01:29:23.866Z,84.45
2022-12-19T01:32:09.321Z,85.57
2022-12-19T01:34:54.813Z,85.37
2022-12-19T01:37:40.261Z,85.90
2022-12-19T01:40:26.007Z,84.93
2022-12-19T01:43:15.731Z,85.39
2022-12-19T01:46:06.037Z,86.17
2022-12-19T01:48:52.036Z,86.29
2022-12-19T01:51:45.932Z,85.18
2022-12-19T01:54:38.138Z,86.28
2022-12-19T01:57:23.690Z,85.62
2022-12-19T02:00:10.620Z,86.18
2022-12-19T02:03:10.888Z,86.20
2022-12-19T02:06:00.020Z,86.81
2022-12-19T02:08:48.776Z,85.14
2022-12-19T02:11:34.368Z,86.08
2022-12-19T02:14:20.372Z,84.89
2022-12-19T02:17:30.202Z,85.42
2022-12-19T02:20:45.248Z,84.76
2022-12-19T02:23:48.759Z,85.09
2022-12-19T02:27:26.410Z,86.37
2022-12-19T02:30:49.546Z,84.90
2022-12-19T02:34:17.614Z,86.19
2022-12-19T02:37:12.035Z,85.66
2022-12-19T02:40:23.830Z,85.42
2022-12-19T02:43:23.396Z,85.73
2022-12-19T02:46:10.108Z,84.96
2022-12-19T02:48:56.590Z,85.12
2022-12-19T02:51:42.374Z,84.71
2022-12-19T02:54:27.823Z,85.68
2022-12-19T02:57:16.050Z,85.34
2022-12-19T03:00:10.243Z,84.26
2022-12-19T03:03:07.823Z,84.48
2022-12-19T03:06:23.834Z,84.36
2022-12-19T03:09:40.728Z,84.41
2022-12-19T03:12:38.324Z,85.18
2022-12-19T03:15:24.611Z,84.90
2022-12-19T03:18:10.867Z,84.43
2022-12-19T03:21:21.491Z,84.73
2022-12-19T03:24:10.719Z,85.17
2022-12-19T03:27:29.665Z,84.93
2022-12-19T03:30:15.809Z,85.63
2022-12-19T03:33:02.769Z,85.07
2022-12-19T03:35:51.007Z,86.36
2022-12-19T03:38:39.692Z,85.01
2022-12-19T03:41:45.092Z,85.09
2022-12-19T03:44:35.472Z,85.43
2022-12-19T03:47:39.461Z,84.60
2022-12-19T03:50:29.042Z,85.50
2022-12-19T03:53:34.183Z,85.97
2022-12-19T03:56:44.711Z,84.31
2022-12-19T03:59:44.706Z,84.93
2022-12-19T04:02:34.422Z,85.04
2022-12-19T04:05:23.821Z,84.52
2022-12-19T04:08:11.603Z,83.63
2022-12-19T04:11:08.054Z,84.63
2022-12-19T04:14:08.369Z,85.08
2022-12-19T04:17:24.250Z,83.87
2022-12-19T04:20:19.240Z,83.29
2022-12-19T04:23:21.523Z,83.48
2022-12-19T04:26:08.821Z,84.36
2022-12-19T04:28:59.705Z,84.08
2022-12-19T04:31:46.251Z,84.02
2022-12-19T04:34:36.852Z,84.14
2022-12-19T04:37:26.008Z,84.34
2022-12-19T04:40:12.619Z,83.48
2022-12-19T04:42:58.262Z,82.54
2022-12-19T04:45:43.821Z,82.72
2022-12-19T04:48:29.880Z,82.20
2022-12-19T04:51:16.265Z,83.36
2022-12-19T04:54:01.991Z,82.63
2022-12-19T04:56:47.371Z,83.45
2022-12-19T04:59:32.983Z,83.41
2022-12-19T05:02:18.646Z,83.21
2022-12-19T05:05:05.031Z,83.37
2022-12-19T05:07:51.398Z,83.30
2022-12-19T05:10:37.694Z,83.28
2022-12-19T05:13:23.422Z,82.86
2022-12-19T05:16:12.861Z,82.62
2022-12-19T05:18:58.734Z,81.97
2022-12-19T05:21:44.276Z,83.28
2022-12-19T05:24:29.625Z,82.84
2022-12-19T05:27:15.067Z,82.41
2022-12-19T05:30:01.348Z,80.88
2022-12-19T05:32:46.909Z,81.01
2022-12-19T05:35:33.481Z,82.16
2022-12-19T05:38:19.130Z,82.14
2022-12-19T05:41:21.428Z,82.01
2022-12-19T05:44:06.788Z,81.79
2022-12-19T05:46:52.374Z,82.25
2022-12-19T05:49:41.703Z,82.99
2022-12-19T05:52:27.199Z,82.30
2022-12-19T05:55:12.815Z,81.46
2022-12-19T05:57:58.219Z,82.02
2022-12-19T06:00:43.777Z,82.00
2022-12-19T06:03:29.780Z,82.38
2022-12-19T06:06:19.873Z,82.55
2022-12-19T06:09:05.874Z,81.44
2022-12-19T06:11:51.217Z,81.20
2022-12-19T06:14:37.079Z,81.31
2022-12-19T06:17:22.647Z,80.98
2022-12-19T06:20:08.865Z,81.67
2022-12-19T06:22:54.703Z,80.78
2022-12-19T06:25:40.185Z,81.71
2022-12-19T06:28:27.499Z,80.76
2022-12-19T06:31:14.576Z,80.83
2022-12-19T06:34:03.033Z,80.34
2022-12-19T06:36:48.711Z,81.27
2022-12-19T06:39:33.987Z,80.56
2022-12-19T06:42:25.289Z,80.82
2022-12-19T06:45:10.880Z,80.19
2022-12-19T06:47:56.855Z,81.22
2022-12-19T06:50:43.170Z,81.21
2022-12-19T06:53:29.247Z,81.26
2022-12-19T06:56:17.107Z,81.11
2022-12-19T06:59:03.323Z,79.95
2022-12-19T07:02:18.475Z,79.21
2022-12-19T07:05:07.871Z,79.58
2022-12-19T07:07:53.609Z,78.37
2022-12-19T07:10:39.160Z,79.32
2022-12-19T07:13:24.863Z,79.67
2022-12-19T07:16:10.774Z,80.45
2022-12-19T07:18:56.495Z,79.98
2022-12-19T07:21:42.019Z,78.88
2022-12-19T07:24:27.510Z,79.28
2022-12-19T07:27:13.041Z,78.41
2022-12-19T07:29:58.420Z,79.06
2022-12-19T07:32:43.921Z,77.19
2022-12-19T07:35:29.947Z,77.61
2022-12-19T07:38:15.471Z,77.83
2022-12-19T07:41:02.301Z,76.88
2022-12-19T07:43:47.679Z,76.75
2022-12-19T07:46:33.213Z,75.72
2022-12-19T07:49:22.597Z,75.39
2022-12-19T07:52:08.744Z,75.20
2022-12-19T07:54:54.170Z,74.17
2022-12-19T07:57:39.918Z,73.00
2022-12-19T08:00:25.528Z,70.62
2022-12-19T08:03:10.966Z,72.12
2022-12-19T08:06:03.096Z,72.42
2022-12-19T08:08:48.977Z,71.85
2022-12-19T08:11:34.928Z,70.10
2022-12-19T08:14:21.162Z,71.55
2022-12-19T08:17:22.269Z,70.56
2022-12-19T08:20:11.371Z,70.84
2022-12-19T08:22:56.713Z,70.89
2022-12-19T08:25:42.185Z,68.78
2022-12-19T08:28:27.947Z,68.69
2022-12-19T08:31:17.574Z,68.86
2022-12-19T08:34:03.295Z,68.11
2022-12-19T08:36:48.735Z,69.57
2022-12-19T08:39:34.109Z,69.50
2022-12-19T08:42:19.509Z,66.54
2022-12-19T08:45:05.871Z,67.38
2022-12-19T08:47:51.257Z,68.80
2022-12-19T08:50:36.734Z,66.52
2022-12-19T08:53:26.431Z,65.38
2022-12-19T08:56:19.399Z,62.70
2022-12-19T08:59:06.104Z,62.98
2022-12-19T09:01:52.225Z,62.71
2022-12-19T09:05:57.447Z,65.23
2022-12-19T09:07:43.599Z,65.84
2022-12-19T09:10:30.354Z,64.70
2022-12-19T09:13:16.088Z,64.01
2022-12-19T09:16:18.563Z,62.63
2022-12-19T09:19:04.350Z,63.71
2022-12-19T09:21:49.769Z,61.11
2022-12-19T09:24:35.240Z,62.37
2022-12-19T09:27:20.535Z,64.54
2022-12-19T09:30:06.828Z,63.53
2022-12-19T09:32:52.427Z,64.91
2022-12-19T09:35:37.816Z,65.46
2022-12-19T09:38:25.612Z,63.28
2022-12-19T09:41:14.124Z,63.09
2022-12-19T09:44:11.033Z,63.67
2022-12-19T09:47:09.979Z,61.86
2022-12-19T09:49:57.252Z,62.99
2022-12-19T09:52:50.073Z,61.02
2022-12-19T09:55:40.743Z,60.02
2022-12-19T09:58:43.758Z,62.00
2022-12-19T10:01:39.670Z,63.15
2022-12-19T10:04:29.600Z,62.04
2022-12-19T10:07:33.152Z,58.14
2022-12-19T10:12:42.399Z,57.49
2022-12-19T10:14:41.773Z,55.71
2022-12-19T10:17:52.111Z,55.75
2022-12-19T10:20:45.078Z,56.03
2022-12-19T10:23:33.454Z,58.11
2022-12-19T10:26:44.585Z,54.21
2022-12-19T10:29:48.613Z,53.26
2022-12-19T10:33:02.827Z,54.32
2022-12-19T10:35:57.547Z,53.24
2022-12-19T10:38:59.702Z,54.57
2022-12-19T10:41:47.600Z,56.04
2022-12-19T10:44:38.601Z,56.15
2022-12-19T10:47:24.360Z,58.64
2022-12-19T10:50:24.503Z,55.94
2022-12-19T10:53:12.877Z,57.81
2022-12-19T10:56:13.494Z,59.26
2022-12-19T10:59:00.041Z,58.37
2022-12-19T11:02:00.542Z,56.33
2022-12-19T11:04:48.212Z,57.69
2022-12-19T11:07:34.545Z,53.55
2022-12-19T11:11:32.571Z,49.53
2022-12-19T11:18:43.403Z,51.47
2022-12-19T11:19:59.776Z,54.82
2022-12-19T11:22:55.072Z,55.42
2022-12-19T11:29:34.556Z,55.91
2022-12-19T11:30:43.170Z,58.95
2022-12-19T11:33:14.706Z,56.06
2022-12-19T11:36:02.295Z,61.09
2022-12-19T11:38:54.212Z,62.87
2022-12-19T11:41:57.015Z,64.63
2022-12-19T11:45:03.414Z,66.08
2022-12-19T11:48:20.506Z,67.06
2022-12-19T11:51:31.514Z,66.36
2022-12-19T11:54:30.481Z,68.20
2022-12-19T11:57:16.558Z,67.79
2022-12-19T12:00:05.372Z,67.94
2022-12-19T12:03:10.190Z,68.33
2022-12-19T12:06:00.696Z,66.82
2022-12-19T12:10:59.125Z,68.39
2022-12-19T12:19:03.229Z,67.24
2022-12-19T12:27:44.715Z,66.89
2022-12-19T12:31:23.616Z,66.97
2022-12-19T12:31:40.801Z,67.83
2022-12-19T12:31:51.726Z,68.73
2022-12-19T12:32:02.056Z,69.18
2022-12-19T12:35:45.386Z,69.48
2022-12-19T12:41:15.399Z,68.79
2022-12-19T12:44:11.179Z,69.09
2022-12-19T12:47:30.155Z,70.13
2022-12-19T12:50:18.438Z,70.73
2022-12-19T12:53:09.443Z,70.47
2022-12-19T12:55:56.902Z,69.61
2022-12-19T12:58:53.962Z,68.50
2022-12-19T13:01:41.277Z,69.72
2022-12-19T13:04:32.889Z,69.88
2022-12-19T13:07:52.880Z,69.60
2022-12-19T13:10:38.639Z,69.37
2022-12-19T13:13:58.116Z,69.16
2022-12-19T13:16:43.448Z,69.88
2022-12-19T13:19:38.336Z,68.25
2022-12-19T13:22:40.905Z,68.28
2022-12-19T13:25:26.226Z,69.84
2022-12-19T13:28:20.750Z,70.09
2022-12-19T13:31:18.452Z,69.28
2022-12-19T13:34:17.335Z,67.95
2022-12-19T13:39:49.773Z,69.01
2022-12-19T13:41:22.997Z,69.51
2022-12-19T13:44:09.515Z,70.14
2022-12-19T13:46:56.309Z,69.25
2022-12-19T13:49:44.452Z,69.12
2022-12-19T13:52:29.837Z,69.25
2022-12-19T13:55:15.321Z,69.61
2022-12-19T13:58:05.021Z,68.93
2022-12-19T14:00:53.892Z,69.07
2022-12-19T14:03:44.379Z,69.93
2022-12-19T14:06:59.854Z,69.64
2022-12-19T14:11:34.414Z,70.29
2022-12-19T14:13:46.771Z,70.80
2022-12-19T14:16:43.375Z,69.65
2022-12-19T14:19:30.916Z,69.92
2022-12-19T14:22:25.373Z,69.38
2022-12-19T14:28:22.145Z,70.05
2022-12-19T14:28:30.285Z,70.02
2022-12-19T14:31:17.962Z,70.00
2022-12-19T14:34:35.719Z,69.79
2022-12-19T14:39:18.422Z,69.30
2022-12-19T14:41:08.376Z,70.04
2022-12-19T14:52:34.153Z,70.09
2022-12-19T14:54:11.823Z,70.05
2022-12-19T14:54:21.094Z,71.05
2022-12-19T14:55:05.547Z,70.41
2022-12-19T14:57:46.402Z,70.79
2022-12-19T15:01:09.805Z,70.72
2022-12-19T15:04:50.920Z,69.11
2022-12-19T15:07:14.595Z,70.93
2022-12-19T15:11:03.943Z,69.91
2022-12-19T15:14:53.738Z,70.88
2022-12-19T15:16:34.734Z,70.28
2022-12-19T15:19:20.450Z,70.31
2022-12-19T15:22:05.717Z,70.29
2022-12-19T15:24:51.645Z,70.52
2022-12-19T15:27:47.470Z,70.28
2022-12-19T15:30:37.997Z,70.85
2022-12-19T15:33:23.787Z,70.35
2022-12-19T15:36:09.918Z,71.03
2022-12-19T15:38:55.241Z,71.11
2022-12-19T15:41:41.663Z,70.54
2022-12-19T15:44:42.079Z,71.54
2022-12-19T15:47:32.961Z,69.62
2022-12-19T15:50:25.064Z,71.93
2022-12-19T15:53:34.641Z,71.51
2022-12-19T15:56:30.531Z,71.08
2022-12-19T15:59:53.232Z,72.08
2022-12-19T16:05:45.974Z,71.48
2022-12-19T16:08:31.640Z,70.55
2022-12-19T16:11:24.451Z,70.62
2022-12-19T16:14:12.268Z,70.70
2022-12-19T16:16:57.966Z,70.87
2022-12-19T16:19:44.582Z,71.17
2022-12-19T16:22:30.087Z,71.57
2022-12-19T16:25:16.208Z,70.88
2022-12-19T16:28:05.226Z,71.76
2022-12-19T16:30:50.884Z,72.04
2022-12-19T16:33:36.198Z,71.54
2022-12-19T16:36:22.185Z,71.87
2022-12-19T16:39:07.964Z,71.80
2022-12-19T16:41:53.245Z,71.27
2022-12-19T16:44:38.574Z,72.53
2022-12-19T16:47:23.993Z,72.13
2022-12-19T16:50:30.982Z,72.68
2022-12-19T16:53:17.642Z,72.36
2022-12-19T16:56:04.643Z,71.97
2022-12-19T16:58:51.775Z,72.37
2022-12-19T17:01:37.751Z,72.36
2022-12-19T17:04:26.055Z,71.94
2022-12-19T17:07:11.880Z,72.75
2022-12-19T17:09:57.395Z,73.49
2022-12-19T17:12:44.189Z,73.46
2022-12-19T17:15:33.762Z,72.83
2022-12-19T17:18:29.669Z,74.00
2022-12-19T17:21:22.129Z,74.09
2022-12-19T17:24:15.847Z,73.55
2022-12-19T17:27:01.139Z,73.53
2022-12-19T17:29:47.208Z,74.51
2022-12-19T17:32:33.248Z,75.94
2022-12-19T17:35:27.805Z,78.08
2022-12-19T17:38:17.052Z,77.00
2022-12-19T17:41:02.761Z,77.22
2022-12-19T17:43:48.899Z,77.44
2022-12-19T17:46:38.328Z,76.84
2022-12-19T17:49:31.492Z,76.84
2022-12-19T17:52:19.992Z,77.62
2022-12-19T17:55:16.900Z,76.97
2022-12-19T17:58:02.543Z,77.33
2022-12-19T18:00:49.381Z,77.96
2022-12-19T18:03:39.923Z,79.40
2022-12-19T18:06:25.939Z,79.09
2022-12-19T18:09:24.564Z,79.20
2022-12-19T18:12:11.095Z,78.63
2022-12-19T18:14:56.713Z,79.69
2022-12-19T18:17:43.362Z,78.49
2022-12-19T18:20:32.922Z,79.54
2022-12-19T18:23:23.463Z,80.61
2022-12-19T18:26:13.139Z,80.66
2022-12-19T18:28:58.488Z,81.16
2022-12-19T18:31:50.546Z,82.15
2022-12-19T18:34:37.703Z,84.63
2022-12-19T18:37:23.062Z,85.76
2022-12-19T18:40:25.998Z,86.05
2022-12-19T18:43:16.624Z,85.29
2022-12-19T18:46:02.224Z,86.55
2022-12-19T18:48:48.685Z,85.55
2022-12-19T18:51:36.087Z,84.59
2022-12-19T18:54:22.702Z,86.74
2022-12-19T18:57:08.929Z,86.42
2022-12-19T18:59:54.625Z,86.57
2022-12-19T19:02:46.975Z,87.07
2022-12-19T19:05:35.852Z,86.57
2022-12-19T19:08:27.455Z,87.17
2022-12-19T19:11:12.999Z,88.18
2022-12-19T19:13:58.459Z,88.00
2022-12-19T19:16:44.765Z,90.15
2022-12-19T19:19:30.538Z,91.75
2022-12-19T19:22:16.059Z,90.84
2022-12-19T19:25:01.407Z,92.12
2022-12-19T19:27:47.098Z,91.26
2022-12-19T19:30:37.680Z,91.63
2022-12-19T19:33:32.747Z,90.59
2022-12-19T19:36:24.659Z,90.97
2022-12-19T19:39:11.097Z,91.42
2022-12-19T19:41:56.540Z,91.31
2022-12-19T19:44:42.036Z,91.04
2022-12-19T19:47:32.324Z,92.02
2022-12-19T19:50:18.350Z,93.26
2022-12-19T19:53:03.934Z,92.72
2022-12-19T19:56:02.298Z,92.86
2022-12-19T19:58:47.773Z,92.97
2022-12-19T20:01:33.592Z,93.38
2022-12-19T20:04:19.206Z,93.89
2022-12-19T20:07:05.390Z,93.48
2022-12-19T20:09:50.839Z,92.63
2022-12-19T20:12:36.406Z,100.00
2022-12-19T20:15:21.989Z,100.00
2022-12-19T20:18:07.408Z,92.19
2022-12-19T20:20:52.816Z,92.72
2022-12-19T20:23:39.442Z,93.02
2022-12-19T20:26:24.745Z,92.34
2022-12-19T20:29:11.564Z,98.62
2022-12-19T20:31:57.224Z,100.00
2022-12-19T20:34:42.746Z,100.00
2022-12-19T20:37:28.665Z,100.00
2022-12-19T20:40:14.523Z,96.09
2022-12-19T20:43:00.143Z,95.13
2022-12-19T20:45:45.583Z,93.94
2022-12-19T20:48:31.588Z,93.01
2022-12-19T20:51:19.244Z,93.31
2022-12-19T20:54:05.310Z,93.81
2022-12-19T20:56:50.833Z,93.47
2022-12-19T20:59:36.387Z,94.43
2022-12-19T21:02:22.432Z,93.02
2022-12-19T21:05:09.082Z,93.68
2022-12-19T21:07:55.926Z,93.79
2022-12-19T21:10:41.560Z,93.69
2022-12-19T21:13:28.027Z,93.27
2022-12-19T21:16:17.644Z,93.36
2022-12-19T21:19:04.103Z,92.46
2022-12-19T21:21:50.195Z,94.35
2022-12-19T21:24:35.885Z,92.57
2022-12-19T21:27:21.210Z,93.30
2022-12-19T21:30:07.822Z,93.02
2022-12-19T21:32:53.635Z,93.20
2022-12-19T21:35:39.176Z,92.73
2022-12-19T21:38:24.828Z,93.97
2022-12-19T21:41:12.327Z,93.78
2022-12-19T21:43:58.862Z,93.14
2022-12-19T21:46:44.832Z,93.10
2022-12-19T21:49:30.329Z,92.68
2022-12-19T21:52:15.912Z,92.62
2022-12-19T21:55:03.343Z,92.68
2022-12-19T21:57:49.109Z,93.26
2022-12-19T22:00:35.694Z,93.70
2022-12-19T22:03:21.467Z,92.60
2022-12-19T22:06:09.110Z,93.83
2022-12-19T22:08:54.734Z,93.49
2022-12-19T22:11:40.406Z,93.25
2022-12-19T22:14:26.108Z,93.18
2022-12-19T22:17:11.813Z,92.83
2022-12-19T22:19:57.212Z,92.05
2022-12-19T22:22:42.581Z,92.70
2022-12-19T22:25:28.494Z,92.18
2022-12-19T22:28:14.003Z,92.23
2022-12-19T22:31:00.348Z,92.13
2022-12-19T22:33:47.538Z,92.37
2022-12-19T22:36:35.727Z,91.70
2022-12-19T22:39:22.544Z,91.92
2022-12-19T22:42:08.167Z,91.91
2022-12-19T22:44:53.736Z,92.83
2022-12-19T22:47:42.318Z,92.50
2022-12-19T22:50:27.945Z,92.54
2022-12-19T22:53:15.308Z,92.83
2022-12-19T22:56:09.110Z,92.04
2022-12-19T22:58:59.384Z,92.32
2022-12-19T23:01:45.547Z,93.23
2022-12-19T23:04:31.154Z,92.27
2022-12-19T23:07:16.880Z,92.63
2022-12-19T23:10:03.471Z,92.62
2022-12-19T23:12:49.547Z,91.97
2022-12-19T23:15:35.989Z,92.46
2022-12-19T23:18:21.645Z,91.98
2022-12-19T23:21:18.456Z,91.71
2022-12-19T23:24:04.280Z,91.99
2022-12-19T23:26:50.082Z,91.69
2022-12-19T23:29:35.710Z,91.40
2022-12-19T23:32:21.319Z,93.39
2022-12-19T23:35:08.753Z,92.33
2022-12-19T23:37:54.047Z,92.46
2022-12-19T23:40:39.403Z,92.08
2022-12-19T23:43:25.298Z,92.85
2022-12-19T23:46:21.800Z,92.07
2022-12-19T23:49:07.563Z,92.39
2022-12-19T23:51:52.969Z,92.27
2022-12-19T23:54:38.527Z,91.76
2022-12-19T23:57:23.904Z,91.66
